Pagina principale
METAR-TAF:

METAR-TAF

Aeroporti :

Bocas del Toro, Panama

latitudine: 09-21N, longitudine: 082-15W, altezza: 3 m

Osservazione

Il bollettino è stato emesso 35 minuti fa, alle 19:00 UTC
Vento 8 kt da est
Temperature 29°C
Umidità 94%
Pressione 1011 hPa
Visibilità 10 km o più
Poco nuvoloso ad un'altezza di 900 ft
Nubi sparse ad un'altezza di 1500 ft
Nuvoloso ad un'altezza di 8000 ft

METAR: MPBO 161900Z 08008KT 9999 FEW009 SCT015 BKN080 29/28 Q1011

Ora: 14:35 (19:35 UTC)


TAF: mancante

Osservazioni e previsioni meteorologiche di più di 4000 aeroporti (messaggi METAR e TAF).

Le stazioni disponibili sono rappresentate dai dischi gialli e rossi sulla carta.

Puntare il mouse per vedere il nome della stazione.

Clicca sopra per visualizzare le osservazioni e previsioni meteorologiche.

Per cambiare la mappa : fare clic sui pulsanti verdi con una croce nera per ingrandire, il pulsante verde con un trattino per diminuire, o sulla freccia verde per le mappe adiacenti.


METAR-TAF: